sensor_id;sensor_type;location;lat;lon;timestamp;P1;durP1;ratioP1;P2;durP2;ratioP2
27792;SDS011;15174;48.190;11.462;2024-02-15T00:01:40;3.05;;;1.42;;
27792;SDS011;15174;48.190;11.462;2024-02-15T00:04:07;5.05;;;1.70;;
27792;SDS011;15174;48.190;11.462;2024-02-15T00:06:33;4.15;;;1.42;;
27792;SDS011;15174;48.190;11.462;2024-02-15T00:09:00;3.63;;;1.60;;
27792;SDS011;15174;48.190;11.462;2024-02-15T00:11:27;3.83;;;1.48;;
27792;SDS011;15174;48.190;11.462;2024-02-15T00:13:53;3.13;;;1.60;;
27792;SDS011;15174;48.190;11.462;2024-02-15T00:16:21;3.25;;;1.58;;
27792;SDS011;15174;48.190;11.462;2024-02-15T00:18:47;3.55;;;1.60;;
27792;SDS011;15174;48.190;11.462;2024-02-15T00:21:15;3.55;;;1.45;;
27792;SDS011;15174;48.190;11.462;2024-02-15T00:23:41;3.08;;;1.40;;
27792;SDS011;15174;48.190;11.462;2024-02-15T00:26:07;1.55;;;1.13;;
27792;SDS011;15174;48.190;11.462;2024-02-15T00:28:37;2.20;;;1.20;;
27792;SDS011;15174;48.190;11.462;2024-02-15T00:31:04;2.45;;;1.42;;
27792;SDS011;15174;48.190;11.462;2024-02-15T00:33:30;2.22;;;1.30;;
27792;SDS011;15174;48.190;11.462;2024-02-15T00:35:57;2.80;;;1.15;;
27792;SDS011;15174;48.190;11.462;2024-02-15T00:38:23;2.92;;;1.58;;
27792;SDS011;15174;48.190;11.462;2024-02-15T00:40:51;2.70;;;1.45;;
27792;SDS011;15174;48.190;11.462;2024-02-15T00:43:19;4.72;;;1.27;;
27792;SDS011;15174;48.190;11.462;2024-02-15T00:45:46;1.77;;;1.20;;
27792;SDS011;15174;48.190;11.462;2024-02-15T00:48:13;3.17;;;1.65;;
27792;SDS011;15174;48.190;11.462;2024-02-15T00:50:40;3.75;;;1.25;;
27792;SDS011;15174;48.190;11.462;2024-02-15T00:53:06;1.80;;;1.15;;
27792;SDS011;15174;48.190;11.462;2024-02-15T00:55:33;1.98;;;1.40;;
27792;SDS011;15174;48.190;11.462;2024-02-15T00:57:59;3.03;;;1.15;;
27792;SDS011;15174;48.190;11.462;2024-02-15T01:00:27;3.40;;;1.50;;
27792;SDS011;15174;48.190;11.462;2024-02-15T01:02:55;3.28;;;1.60;;
27792;SDS011;15174;48.190;11.462;2024-02-15T01:05:22;2.53;;;1.40;;
27792;SDS011;15174;48.190;11.462;2024-02-15T01:07:49;2.33;;;1.20;;
27792;SDS011;15174;48.190;11.462;2024-02-15T01:10:17;3.10;;;1.60;;
27792;SDS011;15174;48.190;11.462;2024-02-15T01:12:44;5.45;;;1.30;;
27792;SDS011;15174;48.190;11.462;2024-02-15T01:15:11;2.22;;;1.38;;
27792;SDS011;15174;48.190;11.462;2024-02-15T01:17:38;1.63;;;1.20;;
27792;SDS011;15174;48.190;11.462;2024-02-15T01:20:09;2.40;;;1.40;;
27792;SDS011;15174;48.190;11.462;2024-02-15T01:22:36;3.38;;;1.60;;
27792;SDS011;15174;48.190;11.462;2024-02-15T01:25:03;3.38;;;2.15;;
27792;SDS011;15174;48.190;11.462;2024-02-15T01:27:29;3.15;;;1.38;;
27792;SDS011;15174;48.190;11.462;2024-02-15T01:29:57;2.65;;;1.40;;
27792;SDS011;15174;48.190;11.462;2024-02-15T01:32:24;3.83;;;1.77;;
27792;SDS011;15174;48.190;11.462;2024-02-15T01:34:53;6.45;;;1.88;;
27792;SDS011;15174;48.190;11.462;2024-02-15T01:37:20;3.42;;;1.65;;
27792;SDS011;15174;48.190;11.462;2024-02-15T01:39:48;2.83;;;1.40;;
27792;SDS011;15174;48.190;11.462;2024-02-15T01:42:15;2.00;;;1.23;;
27792;SDS011;15174;48.190;11.462;2024-02-15T01:44:42;2.10;;;1.40;;
27792;SDS011;15174;48.190;11.462;2024-02-15T01:47:16;5.35;;;1.52;;
27792;SDS011;15174;48.190;11.462;2024-02-15T01:49:45;2.63;;;1.40;;
27792;SDS011;15174;48.190;11.462;2024-02-15T01:52:13;3.10;;;1.55;;
27792;SDS011;15174;48.190;11.462;2024-02-15T01:54:40;2.45;;;1.70;;
27792;SDS011;15174;48.190;11.462;2024-02-15T01:57:07;2.93;;;1.40;;
27792;SDS011;15174;48.190;11.462;2024-02-15T01:59:34;2.83;;;1.70;;
27792;SDS011;15174;48.190;11.462;2024-02-15T02:02:02;1.85;;;1.30;;
27792;SDS011;15174;48.190;11.462;2024-02-15T02:04:30;7.28;;;1.33;;
27792;SDS011;15174;48.190;11.462;2024-02-15T02:06:57;4.07;;;1.70;;
27792;SDS011;15174;48.190;11.462;2024-02-15T02:09:24;2.65;;;1.60;;
27792;SDS011;15174;48.190;11.462;2024-02-15T02:11:51;4.03;;;1.87;;
27792;SDS011;15174;48.190;11.462;2024-02-15T02:14:18;2.05;;;1.50;;
27792;SDS011;15174;48.190;11.462;2024-02-15T02:16:46;2.10;;;1.63;;
27792;SDS011;15174;48.190;11.462;2024-02-15T02:19:14;2.75;;;1.25;;
27792;SDS011;15174;48.190;11.462;2024-02-15T02:21:42;3.40;;;1.50;;
27792;SDS011;15174;48.190;11.462;2024-02-15T02:24:13;5.25;;;1.95;;
27792;SDS011;15174;48.190;11.462;2024-02-15T02:26:41;2.60;;;1.67;;
27792;SDS011;15174;48.190;11.462;2024-02-15T02:29:08;4.00;;;1.48;;
27792;SDS011;15174;48.190;11.462;2024-02-15T02:31:35;2.88;;;1.65;;
27792;SDS011;15174;48.190;11.462;2024-02-15T02:34:01;1.42;;;1.20;;
27792;SDS011;15174;48.190;11.462;2024-02-15T02:36:28;2.70;;;1.48;;
27792;SDS011;15174;48.190;11.462;2024-02-15T02:38:54;3.17;;;1.60;;
27792;SDS011;15174;48.190;11.462;2024-02-15T02:41:25;3.25;;;1.48;;
27792;SDS011;15174;48.190;11.462;2024-02-15T02:43:51;2.03;;;1.58;;
27792;SDS011;15174;48.190;11.462;2024-02-15T02:46:17;2.65;;;1.60;;
27792;SDS011;15174;48.190;11.462;2024-02-15T02:48:43;3.35;;;1.60;;
27792;SDS011;15174;48.190;11.462;2024-02-15T02:51:09;3.20;;;1.63;;
27792;SDS011;15174;48.190;11.462;2024-02-15T02:53:35;4.20;;;1.65;;
27792;SDS011;15174;48.190;11.462;2024-02-15T02:56:01;2.15;;;1.33;;
27792;SDS011;15174;48.190;11.462;2024-02-15T02:58:28;3.40;;;1.33;;
27792;SDS011;15174;48.190;11.462;2024-02-15T03:00:54;1.73;;;1.33;;
27792;SDS011;15174;48.190;11.462;2024-02-15T03:03:21;2.40;;;1.40;;
27792;SDS011;15174;48.190;11.462;2024-02-15T03:05:49;2.97;;;1.70;;
27792;SDS011;15174;48.190;11.462;2024-02-15T03:08:16;3.92;;;1.60;;
27792;SDS011;15174;48.190;11.462;2024-02-15T03:10:45;4.60;;;1.60;;
27792;SDS011;15174;48.190;11.462;2024-02-15T03:13:12;3.58;;;1.40;;
27792;SDS011;15174;48.190;11.462;2024-02-15T03:15:38;4.57;;;1.40;;
27792;SDS011;15174;48.190;11.462;2024-02-15T03:18:04;1.38;;;1.20;;
27792;SDS011;15174;48.190;11.462;2024-02-15T03:20:32;2.22;;;1.42;;
27792;SDS011;15174;48.190;11.462;2024-02-15T03:22:59;3.00;;;1.70;;
27792;SDS011;15174;48.190;11.462;2024-02-15T03:25:26;5.88;;;1.60;;
27792;SDS011;15174;48.190;11.462;2024-02-15T03:30:21;2.75;;;1.55;;
27792;SDS011;15174;48.190;11.462;2024-02-15T03:32:47;2.70;;;1.63;;
27792;SDS011;15174;48.190;11.462;2024-02-15T03:35:17;2.58;;;1.77;;
27792;SDS011;15174;48.190;11.462;2024-02-15T03:37:43;4.40;;;2.00;;
27792;SDS011;15174;48.190;11.462;2024-02-15T03:40:10;2.55;;;1.83;;
27792;SDS011;15174;48.190;11.462;2024-02-15T03:42:36;5.78;;;2.28;;
27792;SDS011;15174;48.190;11.462;2024-02-15T03:45:05;5.22;;;2.83;;
27792;SDS011;15174;48.190;11.462;2024-02-15T03:47:34;4.38;;;2.67;;
27792;SDS011;15174;48.190;11.462;2024-02-15T03:50:04;4.28;;;2.10;;
27792;SDS011;15174;48.190;11.462;2024-02-15T03:52:34;6.20;;;2.25;;
27792;SDS011;15174;48.190;11.462;2024-02-15T03:55:00;6.55;;;1.77;;
27792;SDS011;15174;48.190;11.462;2024-02-15T03:57:27;4.18;;;2.10;;
27792;SDS011;15174;48.190;11.462;2024-02-15T03:59:53;5.05;;;2.05;;
27792;SDS011;15174;48.190;11.462;2024-02-15T04:02:22;4.25;;;2.03;;
27792;SDS011;15174;48.190;11.462;2024-02-15T04:04:51;4.05;;;2.13;;
27792;SDS011;15174;48.190;11.462;2024-02-15T04:07:19;4.90;;;2.30;;
27792;SDS011;15174;48.190;11.462;2024-02-15T04:09:47;5.15;;;2.30;;
27792;SDS011;15174;48.190;11.462;2024-02-15T04:12:13;12.57;;;2.25;;
27792;SDS011;15174;48.190;11.462;2024-02-15T04:14:45;5.00;;;2.60;;
27792;SDS011;15174;48.190;11.462;2024-02-15T04:17:11;3.10;;;1.80;;
27792;SDS011;15174;48.190;11.462;2024-02-15T04:19:39;4.75;;;2.00;;
27792;SDS011;15174;48.190;11.462;2024-02-15T04:22:05;3.30;;;2.05;;
27792;SDS011;15174;48.190;11.462;2024-02-15T04:24:36;5.93;;;2.28;;
27792;SDS011;15174;48.190;11.462;2024-02-15T04:27:06;2.75;;;1.80;;
27792;SDS011;15174;48.190;11.462;2024-02-15T04:29:45;3.78;;;1.95;;
27792;SDS011;15174;48.190;11.462;2024-02-15T04:32:12;4.03;;;2.20;;
27792;SDS011;15174;48.190;11.462;2024-02-15T04:34:38;3.65;;;2.00;;
27792;SDS011;15174;48.190;11.462;2024-02-15T04:37:04;5.82;;;2.50;;
27792;SDS011;15174;48.190;11.462;2024-02-15T04:39:34;5.75;;;2.33;;
27792;SDS011;15174;48.190;11.462;2024-02-15T04:42:01;4.85;;;2.72;;
27792;SDS011;15174;48.190;11.462;2024-02-15T04:44:27;6.43;;;2.28;;
27792;SDS011;15174;48.190;11.462;2024-02-15T04:46:53;5.43;;;1.70;;
27792;SDS011;15174;48.190;11.462;2024-02-15T04:49:19;2.25;;;1.77;;
27792;SDS011;15174;48.190;11.462;2024-02-15T04:51:46;4.97;;;2.20;;
27792;SDS011;15174;48.190;11.462;2024-02-15T04:54:12;2.85;;;1.77;;
27792;SDS011;15174;48.190;11.462;2024-02-15T04:56:39;6.10;;;2.10;;
27792;SDS011;15174;48.190;11.462;2024-02-15T04:59:05;4.47;;;1.90;;
27792;SDS011;15174;48.190;11.462;2024-02-15T05:01:34;2.50;;;1.80;;
27792;SDS011;15174;48.190;11.462;2024-02-15T05:04:00;8.70;;;2.22;;
27792;SDS011;15174;48.190;11.462;2024-02-15T05:06:31;5.10;;;2.08;;
27792;SDS011;15174;48.190;11.462;2024-02-15T05:08:57;4.45;;;2.42;;
27792;SDS011;15174;48.190;11.462;2024-02-15T05:11:25;6.65;;;2.40;;
27792;SDS011;15174;48.190;11.462;2024-02-15T05:13:51;4.75;;;2.40;;
27792;SDS011;15174;48.190;11.462;2024-02-15T05:16:17;3.42;;;2.15;;
27792;SDS011;15174;48.190;11.462;2024-02-15T05:18:44;4.97;;;2.60;;
27792;SDS011;15174;48.190;11.462;2024-02-15T05:21:20;5.07;;;2.65;;
27792;SDS011;15174;48.190;11.462;2024-02-15T05:23:46;3.83;;;1.95;;
27792;SDS011;15174;48.190;11.462;2024-02-15T05:26:14;5.88;;;2.58;;
27792;SDS011;15174;48.190;11.462;2024-02-15T05:28:49;4.15;;;2.20;;
27792;SDS011;15174;48.190;11.462;2024-02-15T05:31:19;3.92;;;2.20;;
27792;SDS011;15174;48.190;11.462;2024-02-15T05:33:46;5.35;;;2.33;;
27792;SDS011;15174;48.190;11.462;2024-02-15T05:36:14;12.23;;;2.60;;
27792;SDS011;15174;48.190;11.462;2024-02-15T05:38:40;4.25;;;2.53;;
27792;SDS011;15174;48.190;11.462;2024-02-15T05:41:06;3.90;;;2.40;;
27792;SDS011;15174;48.190;11.462;2024-02-15T05:43:36;3.97;;;2.28;;
27792;SDS011;15174;48.190;11.462;2024-02-15T05:46:03;7.22;;;2.40;;
27792;SDS011;15174;48.190;11.462;2024-02-15T05:48:29;7.72;;;2.65;;
27792;SDS011;15174;48.190;11.462;2024-02-15T05:50:56;4.70;;;2.17;;
27792;SDS011;15174;48.190;11.462;2024-02-15T05:53:23;5.60;;;2.05;;
27792;SDS011;15174;48.190;11.462;2024-02-15T05:55:49;5.35;;;2.42;;
27792;SDS011;15174;48.190;11.462;2024-02-15T05:58:15;10.77;;;2.70;;
27792;SDS011;15174;48.190;11.462;2024-02-15T06:00:42;9.40;;;2.10;;
27792;SDS011;15174;48.190;11.462;2024-02-15T06:03:10;8.95;;;2.65;;
27792;SDS011;15174;48.190;11.462;2024-02-15T06:05:39;6.63;;;2.15;;
27792;SDS011;15174;48.190;11.462;2024-02-15T06:08:06;3.80;;;2.03;;
27792;SDS011;15174;48.190;11.462;2024-02-15T06:10:32;7.20;;;2.70;;
27792;SDS011;15174;48.190;11.462;2024-02-15T06:12:58;6.80;;;2.38;;
27792;SDS011;15174;48.190;11.462;2024-02-15T06:15:24;8.52;;;2.05;;
27792;SDS011;15174;48.190;11.462;2024-02-15T06:17:52;17.67;;;2.65;;
27792;SDS011;15174;48.190;11.462;2024-02-15T06:20:18;10.35;;;2.45;;
27792;SDS011;15174;48.190;11.462;2024-02-15T06:22:45;10.13;;;2.53;;
27792;SDS011;15174;48.190;11.462;2024-02-15T06:25:11;4.72;;;1.90;;
27792;SDS011;15174;48.190;11.462;2024-02-15T06:27:39;7.28;;;2.08;;
27792;SDS011;15174;48.190;11.462;2024-02-15T06:30:08;5.32;;;2.00;;
27792;SDS011;15174;48.190;11.462;2024-02-15T06:32:53;4.20;;;2.08;;
27792;SDS011;15174;48.190;11.462;2024-02-15T06:35:38;3.63;;;1.42;;
27792;SDS011;15174;48.190;11.462;2024-02-15T06:38:23;4.13;;;2.28;;
27792;SDS011;15174;48.190;11.462;2024-02-15T06:41:08;3.97;;;1.75;;
27792;SDS011;15174;48.190;11.462;2024-02-15T06:43:34;3.22;;;1.33;;
27792;SDS011;15174;48.190;11.462;2024-02-15T06:46:01;8.25;;;2.20;;
27792;SDS011;15174;48.190;11.462;2024-02-15T06:48:27;5.60;;;2.42;;
27792;SDS011;15174;48.190;11.462;2024-02-15T06:50:53;5.10;;;1.83;;
27792;SDS011;15174;48.190;11.462;2024-02-15T06:53:19;3.75;;;1.70;;
27792;SDS011;15174;48.190;11.462;2024-02-15T06:55:46;13.30;;;2.45;;
27792;SDS011;15174;48.190;11.462;2024-02-15T06:58:16;3.05;;;1.90;;
27792;SDS011;15174;48.190;11.462;2024-02-15T07:00:43;5.15;;;2.53;;
27792;SDS011;15174;48.190;11.462;2024-02-15T07:03:09;5.32;;;1.88;;
27792;SDS011;15174;48.190;11.462;2024-02-15T07:05:38;4.90;;;1.80;;
27792;SDS011;15174;48.190;11.462;2024-02-15T07:08:07;3.00;;;1.70;;
27792;SDS011;15174;48.190;11.462;2024-02-15T07:10:37;2.65;;;2.00;;
27792;SDS011;15174;48.190;11.462;2024-02-15T07:13:04;9.45;;;2.10;;
27792;SDS011;15174;48.190;11.462;2024-02-15T07:15:31;6.28;;;2.35;;
27792;SDS011;15174;48.190;11.462;2024-02-15T07:17:58;6.97;;;3.23;;
27792;SDS011;15174;48.190;11.462;2024-02-15T07:20:24;6.50;;;2.80;;
27792;SDS011;15174;48.190;11.462;2024-02-15T07:22:51;7.72;;;2.97;;
27792;SDS011;15174;48.190;11.462;2024-02-15T07:25:18;23.50;;;3.88;;
27792;SDS011;15174;48.190;11.462;2024-02-15T07:27:44;8.10;;;4.15;;
27792;SDS011;15174;48.190;11.462;2024-02-15T07:30:10;8.02;;;3.72;;
27792;SDS011;15174;48.190;11.462;2024-02-15T07:32:36;26.65;;;5.03;;
27792;SDS011;15174;48.190;11.462;2024-02-15T07:35:02;6.13;;;3.15;;
27792;SDS011;15174;48.190;11.462;2024-02-15T07:37:32;5.65;;;2.47;;
27792;SDS011;15174;48.190;11.462;2024-02-15T07:39:59;5.50;;;2.72;;
27792;SDS011;15174;48.190;11.462;2024-02-15T07:42:29;6.25;;;2.13;;
27792;SDS011;15174;48.190;11.462;2024-02-15T07:44:55;4.68;;;2.47;;
27792;SDS011;15174;48.190;11.462;2024-02-15T07:47:21;4.13;;;1.92;;
27792;SDS011;15174;48.190;11.462;2024-02-15T07:52:15;4.65;;;1.80;;
27792;SDS011;15174;48.190;11.462;2024-02-15T07:54:41;4.20;;;1.77;;
27792;SDS011;15174;48.190;11.462;2024-02-15T07:57:07;7.85;;;1.95;;
27792;SDS011;15174;48.190;11.462;2024-02-15T07:59:34;4.23;;;1.67;;
27792;SDS011;15174;48.190;11.462;2024-02-15T08:02:01;10.98;;;1.85;;
27792;SDS011;15174;48.190;11.462;2024-02-15T08:04:27;4.28;;;1.50;;
27792;SDS011;15174;48.190;11.462;2024-02-15T08:06:54;6.72;;;1.80;;
27792;SDS011;15174;48.190;11.462;2024-02-15T08:09:21;3.42;;;1.42;;
27792;SDS011;15174;48.190;11.462;2024-02-15T08:11:49;4.03;;;1.48;;
27792;SDS011;15174;48.190;11.462;2024-02-15T08:14:21;6.47;;;1.25;;
27792;SDS011;15174;48.190;11.462;2024-02-15T08:16:47;8.25;;;2.92;;
27792;SDS011;15174;48.190;11.462;2024-02-15T08:19:13;4.03;;;1.20;;
27792;SDS011;15174;48.190;11.462;2024-02-15T08:21:39;9.40;;;1.52;;
27792;SDS011;15174;48.190;11.462;2024-02-15T08:24:11;9.25;;;1.70;;
27792;SDS011;15174;48.190;11.462;2024-02-15T08:26:38;4.70;;;2.10;;
27792;SDS011;15174;48.190;11.462;2024-02-15T08:29:04;9.90;;;1.77;;
27792;SDS011;15174;48.190;11.462;2024-02-15T08:31:34;9.43;;;1.40;;
27792;SDS011;15174;48.190;11.462;2024-02-15T08:34:03;1.85;;;1.02;;
27792;SDS011;15174;48.190;11.462;2024-02-15T08:36:35;2.97;;;1.17;;
27792;SDS011;15174;48.190;11.462;2024-02-15T08:39:01;7.57;;;1.48;;
27792;SDS011;15174;48.190;11.462;2024-02-15T08:41:30;4.85;;;1.13;;
27792;SDS011;15174;48.190;11.462;2024-02-15T08:43:56;11.88;;;1.27;;
27792;SDS011;15174;48.190;11.462;2024-02-15T08:46:23;3.03;;;0.93;;
27792;SDS011;15174;48.190;11.462;2024-02-15T08:48:51;4.75;;;1.17;;
27792;SDS011;15174;48.190;11.462;2024-02-15T08:51:18;4.70;;;1.10;;
27792;SDS011;15174;48.190;11.462;2024-02-15T08:53:45;12.32;;;1.48;;
27792;SDS011;15174;48.190;11.462;2024-02-15T08:56:12;5.15;;;1.30;;
27792;SDS011;15174;48.190;11.462;2024-02-15T08:58:38;5.65;;;1.23;;
27792;SDS011;15174;48.190;11.462;2024-02-15T09:01:05;3.92;;;1.10;;
27792;SDS011;15174;48.190;11.462;2024-02-15T09:03:33;3.50;;;1.00;;
27792;SDS011;15174;48.190;11.462;2024-02-15T09:05:59;2.83;;;1.10;;
27792;SDS011;15174;48.190;11.462;2024-02-15T09:08:28;2.53;;;1.17;;
27792;SDS011;15174;48.190;11.462;2024-02-15T09:10:55;2.53;;;0.77;;
27792;SDS011;15174;48.190;11.462;2024-02-15T09:13:23;14.93;;;1.75;;
27792;SDS011;15174;48.190;11.462;2024-02-15T09:15:49;16.60;;;1.88;;
27792;SDS011;15174;48.190;11.462;2024-02-15T09:18:15;2.22;;;1.23;;
27792;SDS011;15174;48.190;11.462;2024-02-15T09:20:49;2.22;;;1.00;;
27792;SDS011;15174;48.190;11.462;2024-02-15T09:23:20;3.40;;;1.13;;
27792;SDS011;15174;48.190;11.462;2024-02-15T09:25:48;1.65;;;0.90;;
27792;SDS011;15174;48.190;11.462;2024-02-15T09:28:16;4.75;;;1.00;;
27792;SDS011;15174;48.190;11.462;2024-02-15T09:30:47;1.83;;;1.00;;
27792;SDS011;15174;48.190;11.462;2024-02-15T09:33:13;3.25;;;1.27;;
27792;SDS011;15174;48.190;11.462;2024-02-15T09:35:39;3.38;;;1.15;;
27792;SDS011;15174;48.190;11.462;2024-02-15T09:38:05;2.80;;;1.00;;
27792;SDS011;15174;48.190;11.462;2024-02-15T09:40:31;2.00;;;0.95;;
27792;SDS011;15174;48.190;11.462;2024-02-15T09:42:59;5.05;;;1.10;;
27792;SDS011;15174;48.190;11.462;2024-02-15T09:45:25;3.00;;;0.90;;
27792;SDS011;15174;48.190;11.462;2024-02-15T09:47:51;2.28;;;1.00;;
27792;SDS011;15174;48.190;11.462;2024-02-15T09:50:21;2.50;;;1.30;;
27792;SDS011;15174;48.190;11.462;2024-02-15T09:52:50;4.95;;;1.10;;
27792;SDS011;15174;48.190;11.462;2024-02-15T09:55:17;2.83;;;1.45;;
27792;SDS011;15174;48.190;11.462;2024-02-15T09:57:44;2.87;;;0.80;;
27792;SDS011;15174;48.190;11.462;2024-02-15T10:00:13;3.20;;;0.90;;
27792;SDS011;15174;48.190;11.462;2024-02-15T10:02:40;1.93;;;0.87;;
27792;SDS011;15174;48.190;11.462;2024-02-15T10:05:09;2.63;;;0.95;;
27792;SDS011;15174;48.190;11.462;2024-02-15T10:07:39;3.65;;;0.98;;
27792;SDS011;15174;48.190;11.462;2024-02-15T10:10:15;4.18;;;1.05;;
27792;SDS011;15174;48.190;11.462;2024-02-15T10:12:41;3.05;;;0.65;;
27792;SDS011;15174;48.190;11.462;2024-02-15T10:18:04;3.40;;;0.40;;
27792;SDS011;15174;48.190;11.462;2024-02-15T10:20:32;2.88;;;0.80;;
27792;SDS011;15174;48.190;11.462;2024-02-15T10:25:26;1.15;;;0.60;;
27792;SDS011;15174;48.190;11.462;2024-02-15T10:28:06;1.85;;;0.60;;
27792;SDS011;15174;48.190;11.462;2024-02-15T10:30:36;1.20;;;0.50;;
27792;SDS011;15174;48.190;11.462;2024-02-15T10:33:03;2.55;;;0.50;;
27792;SDS011;15174;48.190;11.462;2024-02-15T10:35:29;1.05;;;0.60;;
27792;SDS011;15174;48.190;11.462;2024-02-15T10:38:08;0.98;;;0.50;;
27792;SDS011;15174;48.190;11.462;2024-02-15T10:40:39;8.82;;;1.02;;
27792;SDS011;15174;48.190;11.462;2024-02-15T10:43:07;4.57;;;1.00;;
27792;SDS011;15174;48.190;11.462;2024-02-15T10:45:38;8.65;;;0.80;;
27792;SDS011;15174;48.190;11.462;2024-02-15T10:48:07;6.03;;;0.80;;
27792;SDS011;15174;48.190;11.462;2024-02-15T10:50:33;1.52;;;0.60;;
27792;SDS011;15174;48.190;11.462;2024-02-15T10:52:59;2.45;;;0.85;;
27792;SDS011;15174;48.190;11.462;2024-02-15T10:58:03;1.48;;;0.70;;
27792;SDS011;15174;48.190;11.462;2024-02-15T11:00:34;5.03;;;1.02;;
27792;SDS011;15174;48.190;11.462;2024-02-15T11:03:05;0.93;;;0.60;;
27792;SDS011;15174;48.190;11.462;2024-02-15T11:05:36;2.67;;;0.52;;
27792;SDS011;15174;48.190;11.462;2024-02-15T11:08:09;1.08;;;0.63;;
27792;SDS011;15174;48.190;11.462;2024-02-15T11:10:36;1.20;;;0.85;;
27792;SDS011;15174;48.190;11.462;2024-02-15T11:13:03;0.93;;;0.50;;
27792;SDS011;15174;48.190;11.462;2024-02-15T11:18:04;4.88;;;0.88;;
27792;SDS011;15174;48.190;11.462;2024-02-15T11:22:58;1.35;;;0.70;;
27792;SDS011;15174;48.190;11.462;2024-02-15T11:25:31;3.40;;;0.82;;
27792;SDS011;15174;48.190;11.462;2024-02-15T11:28:44;2.33;;;0.80;;
27792;SDS011;15174;48.190;11.462;2024-02-15T11:30:45;1.40;;;0.52;;
27792;SDS011;15174;48.190;11.462;2024-02-15T11:33:30;2.63;;;0.60;;
27792;SDS011;15174;48.190;11.462;2024-02-15T11:36:06;3.83;;;0.50;;
27792;SDS011;15174;48.190;11.462;2024-02-15T11:38:33;2.60;;;0.52;;
27792;SDS011;15174;48.190;11.462;2024-02-15T11:46:05;4.60;;;0.75;;
27792;SDS011;15174;48.190;11.462;2024-02-15T11:48:31;3.55;;;0.70;;
27792;SDS011;15174;48.190;11.462;2024-02-15T11:51:04;5.72;;;0.50;;
27792;SDS011;15174;48.190;11.462;2024-02-15T11:53:32;0.90;;;0.50;;
27792;SDS011;15174;48.190;11.462;2024-02-15T11:56:01;3.30;;;0.52;;
27792;SDS011;15174;48.190;11.462;2024-02-15T11:58:30;1.17;;;0.60;;
27792;SDS011;15174;48.190;11.462;2024-02-15T12:01:10;9.27;;;0.90;;
27792;SDS011;15174;48.190;11.462;2024-02-15T12:03:56;0.65;;;0.32;;
27792;SDS011;15174;48.190;11.462;2024-02-15T12:06:41;0.70;;;0.40;;
27792;SDS011;15174;48.190;11.462;2024-02-15T12:09:26;1.92;;;0.45;;
27792;SDS011;15174;48.190;11.462;2024-02-15T12:12:11;1.40;;;0.50;;
27792;SDS011;15174;48.190;11.462;2024-02-15T12:15:02;1.00;;;0.52;;
27792;SDS011;15174;48.190;11.462;2024-02-15T12:17:47;3.60;;;0.63;;
27792;SDS011;15174;48.190;11.462;2024-02-15T12:20:32;2.72;;;0.90;;
27792;SDS011;15174;48.190;11.462;2024-02-15T12:22:59;3.92;;;0.45;;
27792;SDS011;15174;48.190;11.462;2024-02-15T12:25:25;2.25;;;0.68;;
27792;SDS011;15174;48.190;11.462;2024-02-15T12:27:55;4.03;;;0.65;;
27792;SDS011;15174;48.190;11.462;2024-02-15T12:30:22;7.05;;;0.75;;
27792;SDS011;15174;48.190;11.462;2024-02-15T12:35:17;1.13;;;0.57;;
27792;SDS011;15174;48.190;11.462;2024-02-15T12:40:18;0.68;;;0.32;;
27792;SDS011;15174;48.190;11.462;2024-02-15T12:42:47;1.25;;;0.50;;
27792;SDS011;15174;48.190;11.462;2024-02-15T12:45:15;1.45;;;0.50;;
27792;SDS011;15174;48.190;11.462;2024-02-15T12:47:44;1.33;;;0.70;;
27792;SDS011;15174;48.190;11.462;2024-02-15T12:50:14;4.70;;;0.57;;
27792;SDS011;15174;48.190;11.462;2024-02-15T12:52:41;1.58;;;0.63;;
27792;SDS011;15174;48.190;11.462;2024-02-15T12:57:38;2.50;;;0.60;;
27792;SDS011;15174;48.190;11.462;2024-02-15T13:00:10;1.75;;;0.63;;
27792;SDS011;15174;48.190;11.462;2024-02-15T13:02:37;3.80;;;0.52;;
27792;SDS011;15174;48.190;11.462;2024-02-15T13:05:04;1.05;;;0.55;;
27792;SDS011;15174;48.190;11.462;2024-02-15T13:07:30;1.00;;;0.57;;
27792;SDS011;15174;48.190;11.462;2024-02-15T13:09:56;2.50;;;0.88;;
27792;SDS011;15174;48.190;11.462;2024-02-15T13:12:22;3.83;;;0.73;;
27792;SDS011;15174;48.190;11.462;2024-02-15T13:14:48;2.83;;;1.15;;
27792;SDS011;15174;48.190;11.462;2024-02-15T13:17:19;3.03;;;0.70;;
27792;SDS011;15174;48.190;11.462;2024-02-15T13:19:46;1.63;;;0.63;;
27792;SDS011;15174;48.190;11.462;2024-02-15T13:22:14;2.22;;;0.60;;
27792;SDS011;15174;48.190;11.462;2024-02-15T13:24:46;2.13;;;0.73;;
27792;SDS011;15174;48.190;11.462;2024-02-15T13:27:12;1.88;;;0.80;;
27792;SDS011;15174;48.190;11.462;2024-02-15T13:29:38;4.05;;;0.60;;
27792;SDS011;15174;48.190;11.462;2024-02-15T13:32:06;1.10;;;0.73;;
27792;SDS011;15174;48.190;11.462;2024-02-15T13:34:32;2.95;;;0.70;;
27792;SDS011;15174;48.190;11.462;2024-02-15T13:36:59;0.98;;;0.50;;
27792;SDS011;15174;48.190;11.462;2024-02-15T13:39:29;2.70;;;0.88;;
27792;SDS011;15174;48.190;11.462;2024-02-15T13:41:59;2.85;;;1.02;;
27792;SDS011;15174;48.190;11.462;2024-02-15T13:44:25;0.85;;;0.50;;
27792;SDS011;15174;48.190;11.462;2024-02-15T13:46:51;0.68;;;0.50;;
27792;SDS011;15174;48.190;11.462;2024-02-15T13:49:21;4.22;;;0.63;;
27792;SDS011;15174;48.190;11.462;2024-02-15T13:51:47;1.85;;;0.73;;
27792;SDS011;15174;48.190;11.462;2024-02-15T13:54:14;6.30;;;0.90;;
27792;SDS011;15174;48.190;11.462;2024-02-15T13:56:40;3.88;;;0.80;;
27792;SDS011;15174;48.190;11.462;2024-02-15T13:59:06;4.47;;;0.70;;
27792;SDS011;15174;48.190;11.462;2024-02-15T14:01:33;3.73;;;0.53;;
27792;SDS011;15174;48.190;11.462;2024-02-15T14:03:59;0.80;;;0.50;;
27792;SDS011;15174;48.190;11.462;2024-02-15T14:06:25;1.48;;;0.40;;
27792;SDS011;15174;48.190;11.462;2024-02-15T14:08:52;1.92;;;0.60;;
27792;SDS011;15174;48.190;11.462;2024-02-15T14:11:18;0.77;;;0.68;;
27792;SDS011;15174;48.190;11.462;2024-02-15T14:13:44;1.77;;;1.02;;
27792;SDS011;15174;48.190;11.462;2024-02-15T14:16:10;3.50;;;1.13;;
27792;SDS011;15174;48.190;11.462;2024-02-15T14:18:36;0.77;;;0.40;;
27792;SDS011;15174;48.190;11.462;2024-02-15T14:21:02;2.60;;;0.98;;
27792;SDS011;15174;48.190;11.462;2024-02-15T14:23:28;1.95;;;0.95;;
27792;SDS011;15174;48.190;11.462;2024-02-15T14:25:54;0.70;;;0.50;;
27792;SDS011;15174;48.190;11.462;2024-02-15T14:28:25;2.03;;;0.80;;
27792;SDS011;15174;48.190;11.462;2024-02-15T14:30:52;3.97;;;1.20;;
27792;SDS011;15174;48.190;11.462;2024-02-15T14:33:37;1.02;;;0.80;;
27792;SDS011;15174;48.190;11.462;2024-02-15T14:36:03;1.05;;;0.73;;
27792;SDS011;15174;48.190;11.462;2024-02-15T14:38:30;0.60;;;0.57;;
27792;SDS011;15174;48.190;11.462;2024-02-15T14:40:57;4.73;;;2.10;;
27792;SDS011;15174;48.190;11.462;2024-02-15T14:43:25;1.35;;;0.80;;
27792;SDS011;15174;48.190;11.462;2024-02-15T14:45:52;1.02;;;0.70;;
27792;SDS011;15174;48.190;11.462;2024-02-15T14:48:19;1.08;;;0.73;;
27792;SDS011;15174;48.190;11.462;2024-02-15T14:50:45;2.03;;;1.00;;
27792;SDS011;15174;48.190;11.462;2024-02-15T14:53:12;2.17;;;0.90;;
27792;SDS011;15174;48.190;11.462;2024-02-15T14:55:38;9.77;;;1.15;;
27792;SDS011;15174;48.190;11.462;2024-02-15T14:58:05;2.03;;;0.80;;
27792;SDS011;15174;48.190;11.462;2024-02-15T15:02:58;2.17;;;0.63;;
27792;SDS011;15174;48.190;11.462;2024-02-15T15:05:24;2.97;;;0.90;;
27792;SDS011;15174;48.190;11.462;2024-02-15T15:08:09;4.35;;;1.20;;
27792;SDS011;15174;48.190;11.462;2024-02-15T15:10:54;14.02;;;1.52;;
27792;SDS011;15174;48.190;11.462;2024-02-15T15:13:40;10.18;;;1.73;;